首页
METAR-TAF:

METAR-TAF

机场 :

Peterborough, 安大略省, 加拿大

纬度: 44-14N, 经度: 078-22W, 海拔: 191米

当前天气观测

该预报发布于48分钟前的13:00 UTC
风速9节,风向南转西南,有时为15节阵风
温度 0°C
湿度 80%
气压 1014 hPa
能見度: 14.5公里
多云层高于2500英尺

METAR: CYPQ 031300Z AUTO 20009G15KT 9SM BKN025 00/M03 A2994 RMK SLP152

时间: 08:48 (13:48 UTC)

预报

该预报发布于3小时和10分钟前的10:38 UTC
预报有效从03日的 11点(UTC)到 03日的 23点(UTC)
风速7节,风向西南
能見度: 10公里
散云层高于2000英尺
短暂存在
从 03日的 11点(UTC)到 03日的 14点(UTC)
多云层高于2000英尺
从 03日的 1400点(UTC)
风速10节,风向西南,有时为20节阵风
能見度: 10公里
多云层高于3000英尺
短暂存在
从 03日的 14点(UTC)到 03日的 17点(UTC)
多云层高于2000英尺

TAF: CYPQ 031038Z 0311/0323 22007KT P6SM SCT020 TEMPO 0311/0314 BKN020 FM031400 23010G20KT P6SM BKN030 TEMPO 0314/0317 BKN020 RMK FCST BASED ON AUTO OBS. NXT FCST BY 031400Z

超过4000个机场的气象观测和天气预报(METAR&TAF报告)。

可查询的气象台以黄色和红色小点在地图上表示。

将鼠标移到小点上方,可查看气象台名称。

然后点击查看天气观测和预报。

如需切换地图:点击带黑十字的绿色按钮放大地图;点击带横线的绿色按钮缩小地图;或者点击绿色箭头查看邻近地区的地图。


METAR-TAF: